sensor_id;sensor_type;location;lat;lon;timestamp;pressure;altitude;pressure_sealevel;temperature;humidity
47726;BME280;33483;48.294;16.388;2022-12-05T00:01:49;99664.38;;;4.27;100.00
47726;BME280;33483;48.294;16.388;2022-12-05T00:04:17;99665.09;;;4.22;100.00
47726;BME280;33483;48.294;16.388;2022-12-05T00:06:44;99666.59;;;4.23;100.00
47726;BME280;33483;48.294;16.388;2022-12-05T00:09:12;99675.56;;;4.24;100.00
47726;BME280;33483;48.294;16.388;2022-12-05T00:11:42;99677.59;;;4.23;100.00
47726;BME280;33483;48.294;16.388;2022-12-05T00:14:11;99674.06;;;4.23;100.00
47726;BME280;33483;48.294;16.388;2022-12-05T00:16:41;99678.81;;;4.22;100.00
47726;BME280;33483;48.294;16.388;2022-12-05T00:19:11;99685.13;;;4.28;100.00
47726;BME280;33483;48.294;16.388;2022-12-05T00:21:39;99675.84;;;4.26;100.00
47726;BME280;33483;48.294;16.388;2022-12-05T00:24:11;99683.31;;;4.25;100.00
47726;BME280;33483;48.294;16.388;2022-12-05T00:26:39;99684.63;;;4.30;100.00
47726;BME280;33483;48.294;16.388;2022-12-05T00:29:06;99686.81;;;4.26;100.00
47726;BME280;33483;48.294;16.388;2022-12-05T00:31:33;99691.34;;;4.29;100.00
47726;BME280;33483;48.294;16.388;2022-12-05T00:34:02;99683.06;;;4.23;100.00
47726;BME280;33483;48.294;16.388;2022-12-05T00:36:32;99691.81;;;4.27;100.00
47726;BME280;33483;48.294;16.388;2022-12-05T00:39:07;99679.56;;;4.23;100.00
47726;BME280;33483;48.294;16.388;2022-12-05T00:41:35;99675.09;;;4.25;100.00
47726;BME280;33483;48.294;16.388;2022-12-05T00:44:03;99687.31;;;4.24;100.00
47726;BME280;33483;48.294;16.388;2022-12-05T00:46:31;99665.38;;;4.24;100.00
47726;BME280;33483;48.294;16.388;2022-12-05T00:49:04;99673.59;;;4.24;100.00
47726;BME280;33483;48.294;16.388;2022-12-05T00:51:34;99675.31;;;4.22;100.00
47726;BME280;33483;48.294;16.388;2022-12-05T00:54:04;99681.81;;;4.24;100.00
47726;BME280;33483;48.294;16.388;2022-12-05T00:56:32;99667.56;;;4.20;100.00
47726;BME280;33483;48.294;16.388;2022-12-05T00:59:00;99664.06;;;4.20;100.00
47726;BME280;33483;48.294;16.388;2022-12-05T01:01:39;99673.31;;;4.22;100.00
47726;BME280;33483;48.294;16.388;2022-12-05T01:04:22;99685.81;;;4.23;100.00
47726;BME280;33483;48.294;16.388;2022-12-05T01:06:53;99696.22;;;4.19;100.00
47726;BME280;33483;48.294;16.388;2022-12-05T01:09:22;99675.78;;;4.20;100.00
47726;BME280;33483;48.294;16.388;2022-12-05T01:11:49;99678.06;;;4.22;100.00
47726;BME280;33483;48.294;16.388;2022-12-05T01:14:20;99679.22;;;4.15;100.00
47726;BME280;33483;48.294;16.388;2022-12-05T01:16:51;99677.50;;;4.18;100.00
47726;BME280;33483;48.294;16.388;2022-12-05T01:19:25;99686.03;;;4.20;100.00
47726;BME280;33483;48.294;16.388;2022-12-05T01:21:53;99680.81;;;4.22;100.00
47726;BME280;33483;48.294;16.388;2022-12-05T01:24:21;99674.28;;;4.19;100.00
47726;BME280;33483;48.294;16.388;2022-12-05T01:26:49;99683.28;;;4.20;100.00
47726;BME280;33483;48.294;16.388;2022-12-05T01:29:19;99680.81;;;4.22;100.00
47726;BME280;33483;48.294;16.388;2022-12-05T01:31:46;99672.09;;;4.23;100.00
47726;BME280;33483;48.294;16.388;2022-12-05T01:34:17;99671.81;;;4.21;100.00
47726;BME280;33483;48.294;16.388;2022-12-05T01:36:47;99671.25;;;4.17;100.00
47726;BME280;33483;48.294;16.388;2022-12-05T01:39:15;99674.28;;;4.19;100.00
47726;BME280;33483;48.294;16.388;2022-12-05T01:41:45;99679.78;;;4.19;100.00
47726;BME280;33483;48.294;16.388;2022-12-05T01:46:45;99673.31;;;4.22;100.00
47726;BME280;33483;48.294;16.388;2022-12-05T01:49:19;99672.34;;;4.25;100.00
47726;BME280;33483;48.294;16.388;2022-12-05T01:51:54;99680.56;;;4.25;100.00
47726;BME280;33483;48.294;16.388;2022-12-05T01:54:26;99686.81;;;4.26;100.00
47726;BME280;33483;48.294;16.388;2022-12-05T01:57:00;99683.31;;;4.25;100.00
47726;BME280;33483;48.294;16.388;2022-12-05T01:59:34;99695.59;;;4.30;100.00
47726;BME280;33483;48.294;16.388;2022-12-05T02:02:02;99687.31;;;4.24;100.00
47726;BME280;33483;48.294;16.388;2022-12-05T02:04:30;99669.59;;;4.25;100.00
47726;BME280;33483;48.294;16.388;2022-12-05T02:07:01;99671.41;;;4.28;100.00
47726;BME280;33483;48.294;16.388;2022-12-05T02:09:31;99674.88;;;4.29;100.00
47726;BME280;33483;48.294;16.388;2022-12-05T02:12:01;99676.34;;;4.24;100.00
47726;BME280;33483;48.294;16.388;2022-12-05T02:20:34;99667.34;;;4.24;100.00
47726;BME280;33483;48.294;16.388;2022-12-05T02:32:17;99684.00;;;4.20;100.00
47726;BME280;33483;48.294;16.388;2022-12-05T02:37:31;99687.59;;;4.26;100.00
47726;BME280;33483;48.294;16.388;2022-12-05T02:40:22;99694.78;;;4.24;100.00
47726;BME280;33483;48.294;16.388;2022-12-05T02:43:18;99689.97;;;4.19;100.00
47726;BME280;33483;48.294;16.388;2022-12-05T02:45:49;99676.53;;;4.21;100.00
47726;BME280;33483;48.294;16.388;2022-12-05T02:48:22;99672.78;;;4.18;100.00
47726;BME280;33483;48.294;16.388;2022-12-05T02:50:53;99683.75;;;4.18;100.00
47726;BME280;33483;48.294;16.388;2022-12-05T02:53:24;99675.47;;;4.13;100.00
47726;BME280;33483;48.294;16.388;2022-12-05T02:55:53;99675.25;;;4.16;100.00
47726;BME280;33483;48.294;16.388;2022-12-05T02:58:24;99670.72;;;4.13;100.00
47726;BME280;33483;48.294;16.388;2022-12-05T03:00:58;99663.25;;;4.14;100.00
47726;BME280;33483;48.294;16.388;2022-12-05T03:03:27;99670.25;;;4.15;100.00
47726;BME280;33483;48.294;16.388;2022-12-05T03:08:47;99683.19;;;4.14;100.00
47726;BME280;33483;48.294;16.388;2022-12-05T03:11:19;99679.22;;;4.15;100.00
47726;BME280;33483;48.294;16.388;2022-12-05T03:13:51;99689.97;;;4.19;100.00
47726;BME280;33483;48.294;16.388;2022-12-05T03:16:27;99690.66;;;4.14;100.00
47726;BME280;33483;48.294;16.388;2022-12-05T03:19:09;99689.44;;;4.15;100.00
47726;BME280;33483;48.294;16.388;2022-12-05T03:22:05;99688.41;;;4.12;100.00
47726;BME280;33483;48.294;16.388;2022-12-05T03:24:36;99678.41;;;4.09;100.00
47726;BME280;33483;48.294;16.388;2022-12-05T03:30:15;99685.66;;;4.12;100.00
47726;BME280;33483;48.294;16.388;2022-12-05T03:32:54;99692.19;;;4.15;100.00
47726;BME280;33483;48.294;16.388;2022-12-05T03:38:15;99704.50;;;4.05;100.00
47726;BME280;33483;48.294;16.388;2022-12-05T03:46:44;99701.47;;;4.03;100.00
47726;BME280;33483;48.294;16.388;2022-12-05T03:49:20;99695.53;;;4.04;100.00
47726;BME280;33483;48.294;16.388;2022-12-05T03:51:54;99701.03;;;4.04;100.00
47726;BME280;33483;48.294;16.388;2022-12-05T03:54:36;99711.03;;;4.07;100.00
47726;BME280;33483;48.294;16.388;2022-12-05T03:57:19;99707.25;;;4.05;100.00
47726;BME280;33483;48.294;16.388;2022-12-05T03:59:56;99714.19;;;4.00;100.00
47726;BME280;33483;48.294;16.388;2022-12-05T04:02:40;99709.91;;;3.99;100.00
47726;BME280;33483;48.294;16.388;2022-12-05T04:05:20;99699.72;;;4.00;100.00
47726;BME280;33483;48.294;16.388;2022-12-05T04:08:16;99718.91;;;4.00;100.00
47726;BME280;33483;48.294;16.388;2022-12-05T04:10:52;99714.19;;;4.00;100.00
47726;BME280;33483;48.294;16.388;2022-12-05T04:16:09;99718.13;;;3.99;100.00
47726;BME280;33483;48.294;16.388;2022-12-05T04:19:05;99721.66;;;4.00;100.00
47726;BME280;33483;48.294;16.388;2022-12-05T04:21:40;99719.38;;;3.98;100.00
47726;BME280;33483;48.294;16.388;2022-12-05T04:24:12;99725.84;;;3.95;100.00
47726;BME280;33483;48.294;16.388;2022-12-05T04:27:21;99727.88;;;4.00;100.00
47726;BME280;33483;48.294;16.388;2022-12-05T04:30:05;99732.81;;;3.96;100.00
47726;BME280;33483;48.294;16.388;2022-12-05T04:33:02;99736.50;;;3.93;100.00
47726;BME280;33483;48.294;16.388;2022-12-05T04:35:36;99740.22;;;3.90;100.00
47726;BME280;33483;48.294;16.388;2022-12-05T04:38:19;99743.78;;;3.96;100.00
47726;BME280;33483;48.294;16.388;2022-12-05T04:40:58;99727.53;;;3.93;100.00
47726;BME280;33483;48.294;16.388;2022-12-05T04:43:29;99729.53;;;3.92;100.00
47726;BME280;33483;48.294;16.388;2022-12-05T04:45:59;99740.75;;;3.94;100.00
47726;BME280;33483;48.294;16.388;2022-12-05T04:48:29;99733.78;;;3.93;100.00
47726;BME280;33483;48.294;16.388;2022-12-05T04:51:00;99740.56;;;3.98;100.00
47726;BME280;33483;48.294;16.388;2022-12-05T04:53:28;99728.56;;;3.95;100.00
47726;BME280;33483;48.294;16.388;2022-12-05T04:55:58;99747.75;;;3.95;100.00
47726;BME280;33483;48.294;16.388;2022-12-05T04:58:28;99747.47;;;3.93;100.00
47726;BME280;33483;48.294;16.388;2022-12-05T05:01:05;99755.72;;;3.93;100.00
47726;BME280;33483;48.294;16.388;2022-12-05T05:06:06;99749.25;;;3.96;100.00
47726;BME280;33483;48.294;16.388;2022-12-05T05:08:34;99759.22;;;3.94;100.00
47726;BME280;33483;48.294;16.388;2022-12-05T05:11:14;99759.94;;;3.94;100.00
47726;BME280;33483;48.294;16.388;2022-12-05T05:13:42;99757.88;;;3.89;100.00
47726;BME280;33483;48.294;16.388;2022-12-05T05:16:15;99764.63;;;3.88;100.00
47726;BME280;33483;48.294;16.388;2022-12-05T05:18:48;99759.69;;;3.92;100.00
47726;BME280;33483;48.294;16.388;2022-12-05T05:21:28;99754.94;;;3.93;100.00
47726;BME280;33483;48.294;16.388;2022-12-05T05:23:56;99759.94;;;3.94;100.00
47726;BME280;33483;48.294;16.388;2022-12-05T05:26:24;99755.63;;;3.88;100.00
47726;BME280;33483;48.294;16.388;2022-12-05T05:28:52;99757.59;;;3.87;100.00
47726;BME280;33483;48.294;16.388;2022-12-05T05:31:23;99762.16;;;3.90;100.00
47726;BME280;33483;48.294;16.388;2022-12-05T05:33:51;99763.09;;;3.87;100.00
47726;BME280;33483;48.294;16.388;2022-12-05T05:36:23;99771.31;;;3.87;100.00
47726;BME280;33483;48.294;16.388;2022-12-05T05:38:53;99771.13;;;3.91;100.00
47726;BME280;33483;48.294;16.388;2022-12-05T05:41:24;99782.56;;;3.89;100.00
47726;BME280;33483;48.294;16.388;2022-12-05T05:43:51;99781.44;;;3.81;100.00
47726;BME280;33483;48.294;16.388;2022-12-05T05:46:21;99781.84;;;3.74;100.00
47726;BME280;33483;48.294;16.388;2022-12-05T05:48:49;99784.88;;;3.76;100.00
47726;BME280;33483;48.294;16.388;2022-12-05T05:51:18;99787.88;;;3.78;100.00
47726;BME280;33483;48.294;16.388;2022-12-05T05:53:46;99800.84;;;3.78;100.00
47726;BME280;33483;48.294;16.388;2022-12-05T05:56:16;99803.38;;;3.81;100.00
47726;BME280;33483;48.294;16.388;2022-12-05T05:58:53;99798.09;;;3.78;100.00
47726;BME280;33483;48.294;16.388;2022-12-05T06:01:21;99808.38;;;3.83;100.00
47726;BME280;33483;48.294;16.388;2022-12-05T06:03:49;99810.38;;;3.82;100.00
47726;BME280;33483;48.294;16.388;2022-12-05T06:06:17;99799.13;;;3.80;100.00
47726;BME280;33483;48.294;16.388;2022-12-05T06:08:45;99804.34;;;3.78;100.00
47726;BME280;33483;48.294;16.388;2022-12-05T06:11:15;99790.34;;;3.76;100.00
47726;BME280;33483;48.294;16.388;2022-12-05T06:13:52;99790.63;;;3.78;100.00
47726;BME280;33483;48.294;16.388;2022-12-05T06:16:19;99807.09;;;3.78;100.00
47726;BME280;33483;48.294;16.388;2022-12-05T06:18:47;99801.84;;;3.80;100.00
47726;BME280;33483;48.294;16.388;2022-12-05T06:21:16;99798.84;;;3.78;100.00
47726;BME280;33483;48.294;16.388;2022-12-05T06:23:43;99799.41;;;3.82;100.00
47726;BME280;33483;48.294;16.388;2022-12-05T06:26:13;99805.44;;;3.86;100.00
47726;BME280;33483;48.294;16.388;2022-12-05T06:28:41;99812.19;;;3.85;100.00
47726;BME280;33483;48.294;16.388;2022-12-05T06:31:14;99808.00;;;3.90;100.00
47726;BME280;33483;48.294;16.388;2022-12-05T06:33:42;99810.75;;;3.90;100.00
47726;BME280;33483;48.294;16.388;2022-12-05T06:36:13;99807.72;;;3.88;100.00
47726;BME280;33483;48.294;16.388;2022-12-05T06:38:40;99813.97;;;3.88;100.00
47726;BME280;33483;48.294;16.388;2022-12-05T06:41:13;99821.72;;;3.90;100.00
47726;BME280;33483;48.294;16.388;2022-12-05T06:43:40;99825.50;;;3.92;100.00
47726;BME280;33483;48.294;16.388;2022-12-05T06:46:11;99824.63;;;3.86;100.00
47726;BME280;33483;48.294;16.388;2022-12-05T06:48:39;99825.69;;;3.89;100.00
47726;BME280;33483;48.294;16.388;2022-12-05T06:51:12;99827.19;;;3.90;100.00
47726;BME280;33483;48.294;16.388;2022-12-05T06:53:40;99830.69;;;3.90;100.00
47726;BME280;33483;48.294;16.388;2022-12-05T06:56:11;99832.19;;;3.91;100.00
47726;BME280;33483;48.294;16.388;2022-12-05T06:58:42;99840.22;;;3.95;100.00
47726;BME280;33483;48.294;16.388;2022-12-05T07:01:15;99850.16;;;3.92;100.00
47726;BME280;33483;48.294;16.388;2022-12-05T07:04:02;99848.16;;;3.93;100.00
47726;BME280;33483;48.294;16.388;2022-12-05T07:06:29;99850.91;;;3.93;100.00
47726;BME280;33483;48.294;16.388;2022-12-05T07:08:56;99854.69;;;3.95;100.00
47726;BME280;33483;48.294;16.388;2022-12-05T07:11:24;99846.47;;;3.95;100.00
47726;BME280;33483;48.294;16.388;2022-12-05T07:13:52;99839.47;;;3.94;100.00
47726;BME280;33483;48.294;16.388;2022-12-05T07:16:19;99854.97;;;3.97;100.00
47726;BME280;33483;48.294;16.388;2022-12-05T07:18:46;99853.16;;;3.94;100.00
47726;BME280;33483;48.294;16.388;2022-12-05T07:21:14;99849.50;;;3.97;100.00
47726;BME280;33483;48.294;16.388;2022-12-05T07:23:45;99852.50;;;3.99;100.00
47726;BME280;33483;48.294;16.388;2022-12-05T07:26:15;99847.31;;;4.01;100.00
47726;BME280;33483;48.294;16.388;2022-12-05T07:28:42;99860.09;;;4.04;100.00
47726;BME280;33483;48.294;16.388;2022-12-05T07:31:12;99856.84;;;4.06;100.00
47726;BME280;33483;48.294;16.388;2022-12-05T07:33:40;99867.81;;;4.06;100.00
47726;BME280;33483;48.294;16.388;2022-12-05T07:36:13;99857.88;;;4.08;100.00
47726;BME280;33483;48.294;16.388;2022-12-05T07:38:43;99863.84;;;4.07;100.00
47726;BME280;33483;48.294;16.388;2022-12-05T07:41:30;99866.78;;;4.03;100.00
47726;BME280;33483;48.294;16.388;2022-12-05T07:43:59;99869.03;;;4.05;100.00
47726;BME280;33483;48.294;16.388;2022-12-05T07:46:27;99882.38;;;4.12;100.00
47726;BME280;33483;48.294;16.388;2022-12-05T07:48:55;99876.16;;;4.11;100.00
47726;BME280;33483;48.294;16.388;2022-12-05T07:51:22;99881.16;;;4.13;100.00
47726;BME280;33483;48.294;16.388;2022-12-05T07:53:52;99877.16;;;4.14;100.00
47726;BME280;33483;48.294;16.388;2022-12-05T07:56:22;99896.19;;;4.17;100.00
47726;BME280;33483;48.294;16.388;2022-12-05T07:58:49;99896.94;;;4.18;100.00
47726;BME280;33483;48.294;16.388;2022-12-05T08:01:19;99882.94;;;4.16;100.00
47726;BME280;33483;48.294;16.388;2022-12-05T08:03:47;99884.44;;;4.17;100.00
47726;BME280;33483;48.294;16.388;2022-12-05T08:06:17;99874.81;;;4.21;100.00
47726;BME280;33483;48.294;16.388;2022-12-05T08:08:47;99883.22;;;4.18;100.00
47726;BME280;33483;48.294;16.388;2022-12-05T08:11:18;99884.00;;;4.18;100.00
47726;BME280;33483;48.294;16.388;2022-12-05T08:13:46;99885.97;;;4.18;100.00
47726;BME280;33483;48.294;16.388;2022-12-05T08:16:19;99885.00;;;4.21;100.00
47726;BME280;33483;48.294;16.388;2022-12-05T08:18:46;99887.28;;;4.22;100.00
47726;BME280;33483;48.294;16.388;2022-12-05T08:21:16;99889.06;;;4.25;100.00
47726;BME280;33483;48.294;16.388;2022-12-05T08:23:45;99896.34;;;4.28;100.00
47726;BME280;33483;48.294;16.388;2022-12-05T08:26:21;99899.84;;;4.29;100.00
47726;BME280;33483;48.294;16.388;2022-12-05T08:29:02;99886.13;;;4.29;100.00
47726;BME280;33483;48.294;16.388;2022-12-05T08:31:32;99885.66;;;4.30;100.00
47726;BME280;33483;48.294;16.388;2022-12-05T08:34:02;99894.34;;;4.29;100.00
47726;BME280;33483;48.294;16.388;2022-12-05T08:36:30;99890.69;;;4.32;100.00
47726;BME280;33483;48.294;16.388;2022-12-05T08:39:02;99888.88;;;4.29;100.00
47726;BME280;33483;48.294;16.388;2022-12-05T08:41:30;99892.09;;;4.27;100.00
47726;BME280;33483;48.294;16.388;2022-12-05T08:44:02;99898.63;;;4.30;100.00
47726;BME280;33483;48.294;16.388;2022-12-05T08:46:33;99912.16;;;4.33;100.00
47726;BME280;33483;48.294;16.388;2022-12-05T08:49:05;99921.88;;;4.34;100.00
47726;BME280;33483;48.294;16.388;2022-12-05T08:51:33;99919.41;;;4.36;100.00
47726;BME280;33483;48.294;16.388;2022-12-05T08:54:04;99911.66;;;4.35;100.00
47726;BME280;33483;48.294;16.388;2022-12-05T08:56:31;99917.81;;;4.30;100.00
47726;BME280;33483;48.294;16.388;2022-12-05T08:59:01;99914.13;;;4.33;100.00
47726;BME280;33483;48.294;16.388;2022-12-05T09:01:33;99914.88;;;4.33;100.00
47726;BME280;33483;48.294;16.388;2022-12-05T09:04:04;99909.59;;;4.30;100.00
47726;BME280;33483;48.294;16.388;2022-12-05T09:06:34;99913.28;;;4.27;100.00
47726;BME280;33483;48.294;16.388;2022-12-05T09:09:10;99915.56;;;4.28;100.00
47726;BME280;33483;48.294;16.388;2022-12-05T09:11:42;99912.63;;;4.32;100.00
47726;BME280;33483;48.294;16.388;2022-12-05T09:14:17;99919.59;;;4.33;100.00
47726;BME280;33483;48.294;16.388;2022-12-05T09:16:46;99922.34;;;4.33;100.00
47726;BME280;33483;48.294;16.388;2022-12-05T09:19:18;99928.13;;;4.35;100.00
47726;BME280;33483;48.294;16.388;2022-12-05T09:21:46;99930.38;;;4.36;100.00
47726;BME280;33483;48.294;16.388;2022-12-05T09:24:16;99930.69;;;4.38;100.00
47726;BME280;33483;48.294;16.388;2022-12-05T09:26:44;99921.88;;;4.34;100.00
47726;BME280;33483;48.294;16.388;2022-12-05T09:29:12;99918.75;;;4.41;100.00
47726;BME280;33483;48.294;16.388;2022-12-05T09:31:44;99907.03;;;4.41;100.00
47726;BME280;33483;48.294;16.388;2022-12-05T09:34:12;99916.00;;;4.41;100.00
47726;BME280;33483;48.294;16.388;2022-12-05T09:36:43;99924.78;;;4.45;100.00
47726;BME280;33483;48.294;16.388;2022-12-05T09:39:11;99914.97;;;4.39;100.00
47726;BME280;33483;48.294;16.388;2022-12-05T09:41:51;99916.97;;;4.38;100.00
47726;BME280;33483;48.294;16.388;2022-12-05T09:44:45;99919.50;;;4.42;100.00
47726;BME280;33483;48.294;16.388;2022-12-05T09:50:11;99910.59;;;4.47;100.00
47726;BME280;33483;48.294;16.388;2022-12-05T09:52:52;99915.06;;;4.44;100.00
47726;BME280;33483;48.294;16.388;2022-12-05T09:55:21;99918.63;;;4.50;100.00
47726;BME280;33483;48.294;16.388;2022-12-05T09:57:51;99919.19;;;4.54;100.00
47726;BME280;33483;48.294;16.388;2022-12-05T10:00:20;99916.16;;;4.52;100.00
47726;BME280;33483;48.294;16.388;2022-12-05T10:06:17;99916.00;;;4.41;100.00
47726;BME280;33483;48.294;16.388;2022-12-05T10:11:40;99927.75;;;4.42;100.00
47726;BME280;33483;48.294;16.388;2022-12-05T10:15:00;99922.53;;;4.44;100.00
47726;BME280;33483;48.294;16.388;2022-12-05T10:17:15;99933.22;;;4.42;100.00
47726;BME280;33483;48.294;16.388;2022-12-05T10:19:51;99925.00;;;4.42;100.00
47726;BME280;33483;48.294;16.388;2022-12-05T10:22:41;99922.34;;;4.47;100.00
47726;BME280;33483;48.294;16.388;2022-12-05T10:25:10;99924.50;;;4.43;100.00
47726;BME280;33483;48.294;16.388;2022-12-05T10:27:47;99929.22;;;4.43;100.00
47726;BME280;33483;48.294;16.388;2022-12-05T10:30:20;99929.22;;;4.43;100.00
47726;BME280;33483;48.294;16.388;2022-12-05T10:35:40;99919.03;;;4.43;100.00
47726;BME280;33483;48.294;16.388;2022-12-05T10:38:24;99918.94;;;4.38;100.00
47726;BME280;33483;48.294;16.388;2022-12-05T10:40:54;99918.00;;;4.41;100.00
47726;BME280;33483;48.294;16.388;2022-12-05T10:43:29;99923.00;;;4.42;100.00
47726;BME280;33483;48.294;16.388;2022-12-05T10:45:57;99915.81;;;4.45;100.00
47726;BME280;33483;48.294;16.388;2022-12-05T10:48:25;99916.84;;;4.47;100.00
47726;BME280;33483;48.294;16.388;2022-12-05T10:50:55;99917.41;;;4.51;100.00
47726;BME280;33483;48.294;16.388;2022-12-05T10:53:27;99912.03;;;4.42;100.00
47726;BME280;33483;48.294;16.388;2022-12-05T10:55:54;99922.06;;;4.45;100.00
47726;BME280;33483;48.294;16.388;2022-12-05T10:58:56;99916.28;;;4.43;100.00
47726;BME280;33483;48.294;16.388;2022-12-05T11:01:25;99914.31;;;4.44;100.00
47726;BME280;33483;48.294;16.388;2022-12-05T11:03:58;99900.50;;;4.38;100.00
47726;BME280;33483;48.294;16.388;2022-12-05T11:06:28;99895.47;;;4.37;100.00
47726;BME280;33483;48.294;16.388;2022-12-05T11:09:15;99901.06;;;4.42;100.00
47726;BME280;33483;48.294;16.388;2022-12-05T11:11:57;99901.06;;;4.42;100.00
47726;BME280;33483;48.294;16.388;2022-12-05T11:14:26;99896.78;;;4.41;100.00
47726;BME280;33483;48.294;16.388;2022-12-05T11:17:00;99892.81;;;4.42;100.00
47726;BME280;33483;48.294;16.388;2022-12-05T11:19:36;99898.03;;;4.40;100.00
47726;BME280;33483;48.294;16.388;2022-12-05T11:22:04;99891.38;;;4.47;100.00
47726;BME280;33483;48.294;16.388;2022-12-05T11:24:36;99887.63;;;4.44;100.00
47726;BME280;33483;48.294;16.388;2022-12-05T11:29:54;99888.91;;;4.49;100.00
47726;BME280;33483;48.294;16.388;2022-12-05T11:32:27;99885.69;;;4.50;100.00
47726;BME280;33483;48.294;16.388;2022-12-05T11:35:04;99886.94;;;4.49;100.00
47726;BME280;33483;48.294;16.388;2022-12-05T11:37:50;99893.16;;;4.50;100.00
47726;BME280;33483;48.294;16.388;2022-12-05T11:40:51;99874.25;;;4.52;100.00
47726;BME280;33483;48.294;16.388;2022-12-05T11:43:55;99873.50;;;4.51;100.00
47726;BME280;33483;48.294;16.388;2022-12-05T11:49:43;99863.66;;;4.45;100.00
47726;BME280;33483;48.294;16.388;2022-12-05T12:00:31;99854.41;;;4.42;100.00
47726;BME280;33483;48.294;16.388;2022-12-05T12:11:41;99853.28;;;4.34;100.00
47726;BME280;33483;48.294;16.388;2022-12-05T12:20:37;99843.38;;;4.22;100.00
47726;BME280;33483;48.294;16.388;2022-12-05T12:23:26;99836.94;;;4.25;100.00
47726;BME280;33483;48.294;16.388;2022-12-05T12:26:14;99837.06;;;4.16;100.00
47726;BME280;33483;48.294;16.388;2022-12-05T12:29:02;99837.81;;;4.17;100.00
47726;BME280;33483;48.294;16.388;2022-12-05T12:31:45;99831.97;;;4.09;100.00
47726;BME280;33483;48.294;16.388;2022-12-05T12:39:52;99827.72;;;4.08;100.00
47726;BME280;33483;48.294;16.388;2022-12-05T12:42:45;99829.25;;;4.09;100.00
47726;BME280;33483;48.294;16.388;2022-12-05T12:50:31;99844.44;;;4.10;100.00
47726;BME280;33483;48.294;16.388;2022-12-05T13:01:24;99826.09;;;4.16;100.00
47726;BME280;33483;48.294;16.388;2022-12-05T13:04:04;99842.09;;;4.18;100.00
47726;BME280;33483;48.294;16.388;2022-12-05T13:07:30;99832.13;;;4.20;100.00
47726;BME280;33483;48.294;16.388;2022-12-05T13:10:36;99852.19;;;4.26;100.00
47726;BME280;33483;48.294;16.388;2022-12-05T13:12:38;99857.56;;;4.21;100.00
47726;BME280;33483;48.294;16.388;2022-12-05T13:15:15;99853.34;;;4.20;100.00
47726;BME280;33483;48.294;16.388;2022-12-05T13:17:46;99853.53;;;4.16;100.00
47726;BME280;33483;48.294;16.388;2022-12-05T13:20:18;99860.03;;;4.19;100.00
47726;BME280;33483;48.294;16.388;2022-12-05T13:22:48;99859.31;;;4.18;100.00
47726;BME280;33483;48.294;16.388;2022-12-05T13:25:18;99871.19;;;4.15;100.00
47726;BME280;33483;48.294;16.388;2022-12-05T13:27:58;99861.47;;;4.14;100.00
47726;BME280;33483;48.294;16.388;2022-12-05T13:30:27;99853.44;;;4.11;100.00
47726;BME280;33483;48.294;16.388;2022-12-05T13:32:56;99838.50;;;4.12;100.00
47726;BME280;33483;48.294;16.388;2022-12-05T13:35:33;99852.97;;;4.12;100.00
47726;BME280;33483;48.294;16.388;2022-12-05T13:38:37;99847.69;;;4.09;100.00
47726;BME280;33483;48.294;16.388;2022-12-05T13:41:49;99857.22;;;4.13;100.00
47726;BME280;33483;48.294;16.388;2022-12-05T13:47:07;99853.06;;;4.18;100.00
47726;BME280;33483;48.294;16.388;2022-12-05T13:52:52;99858.72;;;4.14;100.00
47726;BME280;33483;48.294;16.388;2022-12-05T13:55:30;99848.78;;;4.17;100.00
47726;BME280;33483;48.294;16.388;2022-12-05T14:00:50;99860.44;;;4.12;100.00
47726;BME280;33483;48.294;16.388;2022-12-05T14:06:00;99860.44;;;4.12;100.00
47726;BME280;33483;48.294;16.388;2022-12-05T14:24:31;99879.44;;;4.15;100.00
47726;BME280;33483;48.294;16.388;2022-12-05T14:27:24;99880.38;;;4.12;100.00
47726;BME280;33483;48.294;16.388;2022-12-05T14:32:37;99869.41;;;4.12;100.00
47726;BME280;33483;48.294;16.388;2022-12-05T14:35:16;99860.22;;;4.15;100.00
47726;BME280;33483;48.294;16.388;2022-12-05T14:37:54;99861.47;;;4.14;100.00
47726;BME280;33483;48.294;16.388;2022-12-05T14:42:50;99867.91;;;4.11;100.00
47726;BME280;33483;48.294;16.388;2022-12-05T14:47:55;99863.25;;;4.17;100.00
47726;BME280;33483;48.294;16.388;2022-12-05T14:55:44;99859.75;;;4.17;100.00
47726;BME280;33483;48.294;16.388;2022-12-05T15:01:06;99887.66;;;4.15;100.00
47726;BME280;33483;48.294;16.388;2022-12-05T15:03:38;99886.44;;;4.16;100.00
47726;BME280;33483;48.294;16.388;2022-12-05T15:06:14;99880.19;;;4.16;100.00
47726;BME280;33483;48.294;16.388;2022-12-05T15:08:46;99886.94;;;4.15;100.00
47726;BME280;33483;48.294;16.388;2022-12-05T15:11:17;99867.97;;;4.17;100.00
47726;BME280;33483;48.294;16.388;2022-12-05T15:14:04;99866.78;;;4.18;100.00
47726;BME280;33483;48.294;16.388;2022-12-05T15:16:37;99872.72;;;4.16;100.00
47726;BME280;33483;48.294;16.388;2022-12-05T15:19:14;99877.75;;;4.18;100.00
47726;BME280;33483;48.294;16.388;2022-12-05T15:21:49;99868.47;;;4.15;100.00
47726;BME280;33483;48.294;16.388;2022-12-05T15:24:37;99887.66;;;4.15;100.00
47726;BME280;33483;48.294;16.388;2022-12-05T15:27:09;99888.44;;;4.16;100.00
47726;BME280;33483;48.294;16.388;2022-12-05T15:29:53;99894.69;;;4.16;100.00
47726;BME280;33483;48.294;16.388;2022-12-05T15:32:24;99908.69;;;4.18;100.00
47726;BME280;33483;48.294;16.388;2022-12-05T15:35:01;99912.63;;;4.17;100.00
47726;BME280;33483;48.294;16.388;2022-12-05T15:40:09;99914.72;;;3.93;100.00
47726;BME280;33483;48.294;16.388;2022-12-05T15:42:43;99920.78;;;3.83;100.00
47726;BME280;33483;48.294;16.388;2022-12-05T15:47:41;99903.94;;;3.75;100.00
47726;BME280;33483;48.294;16.388;2022-12-05T15:52:59;99906.03;;;3.66;100.00
47726;BME280;33483;48.294;16.388;2022-12-05T15:55:33;99915.66;;;3.61;100.00